Accueil
METAR-TAF:

METAR-TAF

Aéroports :

Friday Harbor Airport

Friday Harbor, Washington, États-Unis

latitude: 48-31-13N, longitude: 123-01-31W, altitude: 33 m

Observation

Le bulletin a été fait il y a 7 minutes, à 08:40 UTC
Vent calme
Température 13°C
Humidité 88%
Pression 1009 hPa
Visibilité: 9.7 km
Nuages fragmentés à une hauteur de 1600 ft
Ciel couvert à une hauteur de 7000 ft
brume

METAR: KFHR 220840Z AUTO 00000KT 6SM BR BKN016 OVC070 13/11 A2980 RMK AO2 T01280111 TSNO

Heure: 01:47 (08:47 UTC)


TAF: absent

Observations et prévisions météorologiques de plus de 4000 aéroports (messages METAR et TAF).

Les stations disponibles sont représentées par des disques jaunes et rouges sur la carte.

Passer la souris dessus pour voir le nom de la station.

Cliquer dessus pour voir les observations et prévisions météorologiques.

Pour changer de carte: cliquez sur les boutons verts avec une croix noire pour zoomer, sur le bouton vert avec un tiret pour effectuer un zoom arrière, ou sur les flèches vertes pour les cartes adjacentes.


METAR-TAF: